createdAt,value
2023-01-09T00:00:08.218Z,88.60
2023-01-09T00:03:50.108Z,88.70
2023-01-09T00:07:31.823Z,88.50
2023-01-09T00:11:13.564Z,88.50
2023-01-09T00:14:55.253Z,88.60
2023-01-09T00:18:37.999Z,88.50
2023-01-09T00:22:20.057Z,88.40
2023-01-09T00:26:21.045Z,88.20
2023-01-09T00:30:03.256Z,88.10
2023-01-09T00:33:46.662Z,88.00
2023-01-09T00:37:28.376Z,88.20
2023-01-09T00:41:14.092Z,88.40
2023-01-09T00:45:00.848Z,88.70
2023-01-09T00:48:42.848Z,88.60
2023-01-09T00:52:24.524Z,88.30
2023-01-09T00:56:08.425Z,88.10
2023-01-09T00:59:50.137Z,88.20
2023-01-09T01:03:31.897Z,88.20
2023-01-09T01:07:32.146Z,88.30
2023-01-09T01:11:14.134Z,88.30
2023-01-09T01:14:55.831Z,88.40
2023-01-09T01:18:37.829Z,88.60
2023-01-09T01:22:19.501Z,88.80
2023-01-09T01:26:09.097Z,89.00
2023-01-09T01:29:51.140Z,89.40
2023-01-09T01:33:33.101Z,89.20
2023-01-09T01:37:14.923Z,89.00
2023-01-09T01:40:56.778Z,88.90
2023-01-09T01:44:56.951Z,89.00
2023-01-09T01:48:39.929Z,89.40
2023-01-09T01:52:21.631Z,89.30
2023-01-09T01:56:10.432Z,89.10
2023-01-09T01:59:55.500Z,89.10
2023-01-09T02:03:37.170Z,89.00
2023-01-09T02:07:18.871Z,88.90
2023-01-09T02:11:01.398Z,89.00
2023-01-09T02:14:43.105Z,89.10
2023-01-09T02:18:37.109Z,89.10
2023-01-09T02:22:20.071Z,89.20
2023-01-09T02:26:23.489Z,89.10
2023-01-09T02:30:27.096Z,88.80
2023-01-09T02:34:41.285Z,88.70
2023-01-09T02:38:47.046Z,88.40
2023-01-09T02:42:28.867Z,88.20
2023-01-09T02:46:21.015Z,88.00
2023-01-09T02:50:05.604Z,87.90
2023-01-09T02:54:01.565Z,88.00
2023-01-09T02:57:56.897Z,87.70
2023-01-09T03:02:00.533Z,87.90
2023-01-09T03:05:48.172Z,87.70
2023-01-09T03:09:33.074Z,87.50
2023-01-09T03:13:16.366Z,87.20
2023-01-09T03:17:04.291Z,87.20
2023-01-09T03:20:46.459Z,86.70
2023-01-09T03:24:28.240Z,86.70
2023-01-09T03:28:26.009Z,86.40
2023-01-09T03:32:07.707Z,86.30
2023-01-09T03:35:49.434Z,86.50
2023-01-09T03:39:32.157Z,86.50
2023-01-09T03:43:13.862Z,86.50
2023-01-09T03:46:55.531Z,86.50
2023-01-09T03:50:38.525Z,86.10
2023-01-09T03:54:20.256Z,86.30
2023-01-09T03:58:01.934Z,86.50
2023-01-09T04:01:43.946Z,86.40
2023-01-09T04:05:25.697Z,85.90
2023-01-09T04:09:08.659Z,86.10
2023-01-09T04:12:50.335Z,85.70
2023-01-09T04:16:32.166Z,85.50
2023-01-09T04:20:15.077Z,85.80
2023-01-09T04:23:56.750Z,86.00
2023-01-09T04:27:38.514Z,86.30
2023-01-09T04:31:20.404Z,86.30
2023-01-09T04:35:02.094Z,86.70
2023-01-09T04:38:44.002Z,86.60
2023-01-09T04:42:25.784Z,85.60
2023-01-09T04:46:07.557Z,85.80
2023-01-09T04:49:49.464Z,85.80
2023-01-09T04:53:31.156Z,85.70
2023-01-09T04:57:12.835Z,85.70
2023-01-09T05:00:54.899Z,85.70
2023-01-09T05:04:36.911Z,85.70
2023-01-09T05:08:18.703Z,85.90
2023-01-09T05:12:01.822Z,86.40
2023-01-09T05:15:43.645Z,87.30
2023-01-09T05:19:25.646Z,87.00
2023-01-09T05:23:07.322Z,87.10
2023-01-09T05:26:49.042Z,87.30
2023-01-09T05:30:31.066Z,87.00
2023-01-09T05:34:12.798Z,87.10
2023-01-09T05:37:54.927Z,87.20
2023-01-09T05:41:37.688Z,87.20
2023-01-09T05:45:19.426Z,87.20
2023-01-09T05:49:03.477Z,87.30
2023-01-09T05:52:45.159Z,87.60
2023-01-09T05:56:26.843Z,87.90
2023-01-09T06:00:09.371Z,88.00
2023-01-09T06:03:51.086Z,88.20
2023-01-09T06:07:34.802Z,88.10
2023-01-09T06:11:17.767Z,87.30
2023-01-09T06:14:59.511Z,87.40
2023-01-09T06:18:42.494Z,87.50
2023-01-09T06:22:24.205Z,87.50
2023-01-09T06:26:05.959Z,87.60
2023-01-09T06:29:47.829Z,87.70
2023-01-09T06:33:29.506Z,87.50
2023-01-09T06:37:11.351Z,87.80
2023-01-09T06:40:54.238Z,88.00
2023-01-09T06:44:36.739Z,87.80
2023-01-09T06:48:18.459Z,87.90
2023-01-09T06:52:05.446Z,88.20
2023-01-09T06:55:47.175Z,88.30
2023-01-09T06:59:28.990Z,88.30
2023-01-09T07:03:11.625Z,88.30
2023-01-09T07:06:53.285Z,88.80
2023-01-09T07:10:37.176Z,88.90
2023-01-09T07:14:18.925Z,89.30
2023-01-09T07:18:00.669Z,89.60
2023-01-09T07:21:42.576Z,89.90
2023-01-09T07:25:24.244Z,90.00
2023-01-09T07:29:06.168Z,90.00
2023-01-09T07:32:47.839Z,90.10
2023-01-09T07:36:29.620Z,90.10
2023-01-09T07:40:13.843Z,90.10
2023-01-09T07:43:56.476Z,90.10
2023-01-09T07:47:40.688Z,89.80
2023-01-09T07:51:22.514Z,90.00
2023-01-09T07:55:04.516Z,89.50
2023-01-09T07:58:46.429Z,89.20
2023-01-09T08:02:28.246Z,88.90
2023-01-09T08:06:10.311Z,88.60
2023-01-09T08:09:52.005Z,89.10
2023-01-09T08:13:33.676Z,88.30
2023-01-09T08:17:15.454Z,88.30
2023-01-09T08:20:57.127Z,88.30
2023-01-09T08:24:38.813Z,88.40
2023-01-09T08:28:20.512Z,88.10
2023-01-09T08:32:02.202Z,88.00
2023-01-09T08:35:44.492Z,87.90
2023-01-09T08:39:26.219Z,87.80
2023-01-09T08:43:27.355Z,87.70
2023-01-09T08:47:09.263Z,87.50
2023-01-09T08:50:52.187Z,87.30
2023-01-09T08:54:36.895Z,87.40
2023-01-09T08:58:18.629Z,87.00
2023-01-09T09:02:00.771Z,86.70
2023-01-09T09:05:42.499Z,86.40
2023-01-09T09:09:25.782Z,86.40
2023-01-09T09:13:07.506Z,86.10
2023-01-09T09:16:49.848Z,86.10
2023-01-09T09:20:33.487Z,86.10
2023-01-09T09:24:15.191Z,86.10
2023-01-09T09:27:56.985Z,86.40
2023-01-09T09:31:40.913Z,85.50
2023-01-09T09:35:22.701Z,85.10
2023-01-09T09:39:07.220Z,85.60
2023-01-09T09:43:20.467Z,85.30
2023-01-09T09:47:14.669Z,85.10
2023-01-09T09:51:15.235Z,85.00
2023-01-09T09:54:57.104Z,84.70
2023-01-09T09:58:42.614Z,84.50
2023-01-09T10:02:55.211Z,84.50
2023-01-09T10:06:53.133Z,83.90
2023-01-09T10:10:41.023Z,84.00
2023-01-09T10:14:24.646Z,83.40
2023-01-09T10:18:24.693Z,83.30
2023-01-09T10:22:14.502Z,84.00
2023-01-09T10:26:23.887Z,83.10
2023-01-09T10:30:24.472Z,82.30
2023-01-09T10:34:24.148Z,82.40
2023-01-09T10:38:06.565Z,81.80
2023-01-09T10:41:58.736Z,82.80
2023-01-09T10:45:50.805Z,82.00
2023-01-09T10:49:32.625Z,81.20
2023-01-09T10:53:35.670Z,82.10
2023-01-09T10:57:35.798Z,81.60
2023-01-09T11:01:39.342Z,80.80
2023-01-09T11:05:23.993Z,79.60
2023-01-09T11:09:06.898Z,79.80
2023-01-09T11:12:48.752Z,78.90
2023-01-09T11:16:30.436Z,79.70
2023-01-09T11:20:26.097Z,80.60
2023-01-09T11:24:22.857Z,77.90
2023-01-09T11:28:08.270Z,77.00
2023-01-09T11:31:58.235Z,77.50
2023-01-09T11:35:39.948Z,77.40
2023-01-09T11:39:26.076Z,76.40
2023-01-09T11:43:30.583Z,76.10
2023-01-09T11:47:34.428Z,75.00
2023-01-09T11:51:18.467Z,74.70
2023-01-09T11:55:11.323Z,73.50
2023-01-09T11:58:53.033Z,74.50
2023-01-09T12:02:51.459Z,74.10
2023-01-09T12:06:54.004Z,73.00
2023-01-09T12:10:59.959Z,74.40
2023-01-09T12:15:00.735Z,73.20
2023-01-09T12:19:24.066Z,73.80
2023-01-09T12:23:31.051Z,74.20
2023-01-09T12:27:24.793Z,72.80
2023-01-09T12:31:16.843Z,72.80
2023-01-09T12:35:22.908Z,73.70
2023-01-09T12:39:36.853Z,73.70
2023-01-09T12:43:26.084Z,74.40
2023-01-09T12:47:26.343Z,75.20
2023-01-09T12:51:18.859Z,75.00
2023-01-09T12:55:20.393Z,74.30
2023-01-09T12:59:11.738Z,73.70
2023-01-09T13:03:21.182Z,73.70
2023-01-09T13:07:11.379Z,73.50
2023-01-09T13:10:57.506Z,74.70
2023-01-09T13:14:51.350Z,74.60
2023-01-09T13:18:45.930Z,74.10
2023-01-09T13:22:28.268Z,73.50
2023-01-09T13:26:14.073Z,74.00
2023-01-09T13:30:06.568Z,73.10
2023-01-09T13:33:56.007Z,72.10
2023-01-09T13:37:37.710Z,71.90
2023-01-09T13:41:38.227Z,72.50
2023-01-09T13:45:34.175Z,73.00
2023-01-09T13:49:41.166Z,72.10
2023-01-09T13:53:42.367Z,73.00
2023-01-09T13:57:29.020Z,73.80
2023-01-09T14:01:24.190Z,73.40
2023-01-09T14:05:16.230Z,71.80
2023-01-09T14:09:18.463Z,72.50
2023-01-09T14:13:00.201Z,72.40
2023-01-09T14:16:41.965Z,73.60
2023-01-09T14:20:27.175Z,72.90
2023-01-09T14:24:10.091Z,72.70
2023-01-09T14:27:54.857Z,73.20
2023-01-09T14:31:36.670Z,72.10
2023-01-09T14:35:39.035Z,72.40
2023-01-09T14:39:21.397Z,71.20
2023-01-09T14:43:13.825Z,72.10
2023-01-09T14:46:57.005Z,71.30
2023-01-09T14:50:47.983Z,72.20
2023-01-09T14:54:34.750Z,71.20
2023-01-09T14:58:23.539Z,71.90
2023-01-09T15:02:08.369Z,71.80
2023-01-09T15:05:50.162Z,72.20
2023-01-09T15:09:45.477Z,72.40
2023-01-09T15:13:35.541Z,71.30
2023-01-09T15:17:20.796Z,72.30
2023-01-09T15:21:02.677Z,72.90
2023-01-09T15:24:44.418Z,73.00
2023-01-09T15:28:26.261Z,72.90
2023-01-09T15:32:28.077Z,73.00
2023-01-09T15:36:28.452Z,73.30
2023-01-09T15:40:26.627Z,73.30
2023-01-09T15:44:13.454Z,73.80
2023-01-09T15:47:55.614Z,74.10
2023-01-09T15:51:37.432Z,74.10
2023-01-09T15:55:35.426Z,73.90
2023-01-09T15:59:27.786Z,73.10
2023-01-09T16:03:20.372Z,73.30
2023-01-09T16:07:02.087Z,73.50
2023-01-09T16:10:43.918Z,73.30
2023-01-09T16:14:34.414Z,73.60
2023-01-09T16:18:16.115Z,73.80
2023-01-09T16:22:01.881Z,74.60
2023-01-09T16:25:43.568Z,74.30
2023-01-09T16:29:35.578Z,74.60
2023-01-09T16:33:22.071Z,74.80
2023-01-09T16:37:05.244Z,74.40
2023-01-09T16:41:36.831Z,74.30
2023-01-09T16:45:20.844Z,74.10
2023-01-09T16:49:02.745Z,74.90
2023-01-09T16:52:46.519Z,75.10
2023-01-09T16:56:29.764Z,75.50
2023-01-09T17:00:19.323Z,75.60
2023-01-09T17:04:01.215Z,75.70
2023-01-09T17:07:42.882Z,76.50
2023-01-09T17:11:31.199Z,75.90
2023-01-09T17:15:12.990Z,76.10
2023-01-09T17:18:55.935Z,76.10
2023-01-09T17:22:37.627Z,76.10
2023-01-09T17:26:38.551Z,76.40
2023-01-09T17:30:21.028Z,76.40
2023-01-09T17:34:02.745Z,76.50
2023-01-09T17:37:44.543Z,76.60
2023-01-09T17:41:28.817Z,77.20
2023-01-09T17:45:10.916Z,76.90
2023-01-09T17:48:53.454Z,76.90
2023-01-09T17:52:35.221Z,77.20
2023-01-09T17:56:30.418Z,77.30
2023-01-09T18:00:18.786Z,77.10
2023-01-09T18:04:00.503Z,77.00
2023-01-09T18:07:42.182Z,76.90
2023-01-09T18:11:25.256Z,76.70
2023-01-09T18:15:07.476Z,76.80
2023-01-09T18:18:50.248Z,76.80
2023-01-09T18:22:33.596Z,76.80
2023-01-09T18:26:20.832Z,76.80
2023-01-09T18:30:05.437Z,76.80
2023-01-09T18:33:47.528Z,76.90
2023-01-09T18:37:29.209Z,77.60
2023-01-09T18:41:11.035Z,77.10
2023-01-09T18:44:52.756Z,77.90
2023-01-09T18:48:34.577Z,77.20
2023-01-09T18:52:16.269Z,77.40
2023-01-09T18:55:58.075Z,77.00
2023-01-09T18:59:40.022Z,77.20
2023-01-09T19:03:21.977Z,77.40
2023-01-09T19:07:03.643Z,76.90
2023-01-09T19:10:53.943Z,76.80
2023-01-09T19:14:35.630Z,76.90
2023-01-09T19:18:17.544Z,76.90
2023-01-09T19:21:59.309Z,76.50
2023-01-09T19:25:40.979Z,75.90
2023-01-09T19:29:22.848Z,76.10
2023-01-09T19:33:04.614Z,76.50
2023-01-09T19:36:47.664Z,76.10
2023-01-09T19:40:29.744Z,76.10
2023-01-09T19:44:11.600Z,76.50
2023-01-09T19:47:53.273Z,76.40
2023-01-09T19:51:35.156Z,76.60
2023-01-09T19:55:16.991Z,76.60
2023-01-09T19:59:01.720Z,76.70
2023-01-09T20:02:43.391Z,76.30
2023-01-09T20:06:26.308Z,76.50
2023-01-09T20:10:08.886Z,76.50
2023-01-09T20:13:50.558Z,76.70
2023-01-09T20:17:32.918Z,76.80
2023-01-09T20:21:18.753Z,76.70
2023-01-09T20:25:00.487Z,77.30
2023-01-09T20:28:42.645Z,77.30
2023-01-09T20:32:24.325Z,77.50
2023-01-09T20:36:06.465Z,76.90
2023-01-09T20:39:52.912Z,76.90
2023-01-09T20:43:35.954Z,76.70
2023-01-09T20:47:17.774Z,76.70
2023-01-09T20:51:06.960Z,76.80
2023-01-09T20:54:48.651Z,76.90
2023-01-09T20:58:30.619Z,77.10
2023-01-09T21:02:14.335Z,77.30
2023-01-09T21:05:56.052Z,77.30
2023-01-09T21:09:37.897Z,77.40
2023-01-09T21:13:19.580Z,77.50
2023-01-09T21:17:01.579Z,77.80
2023-01-09T21:20:43.546Z,77.90
2023-01-09T21:24:25.227Z,78.00
2023-01-09T21:28:07.809Z,78.00
2023-01-09T21:31:50.790Z,78.10
2023-01-09T21:35:32.789Z,78.50
2023-01-09T21:39:18.794Z,78.80
2023-01-09T21:43:18.878Z,78.90
2023-01-09T21:47:00.960Z,79.10
2023-01-09T21:50:43.031Z,79.10
2023-01-09T21:54:24.789Z,79.10
2023-01-09T21:58:06.527Z,78.80
2023-01-09T22:01:51.394Z,78.30
2023-01-09T22:05:36.200Z,78.10
2023-01-09T22:09:18.005Z,77.70
2023-01-09T22:13:17.382Z,77.80
2023-01-09T22:16:59.103Z,78.10
2023-01-09T22:20:40.860Z,78.20
2023-01-09T22:24:22.611Z,78.40
2023-01-09T22:28:04.880Z,78.20
2023-01-09T22:31:47.427Z,78.40
2023-01-09T22:35:29.158Z,78.30
2023-01-09T22:39:14.983Z,78.40
2023-01-09T22:42:56.717Z,78.60
2023-01-09T22:46:38.718Z,78.40
2023-01-09T22:50:20.650Z,78.80
2023-01-09T22:54:02.456Z,77.80
2023-01-09T22:57:44.131Z,77.70
2023-01-09T23:01:26.046Z,77.90
2023-01-09T23:05:08.066Z,78.20
2023-01-09T23:08:53.127Z,78.60
2023-01-09T23:12:34.815Z,79.00
2023-01-09T23:16:16.496Z,79.10
2023-01-09T23:19:58.450Z,79.20
2023-01-09T23:23:40.147Z,79.20
2023-01-09T23:27:21.864Z,79.50
2023-01-09T23:31:03.856Z,79.60
2023-01-09T23:34:47.279Z,79.50
2023-01-09T23:38:29.233Z,79.60
2023-01-09T23:42:29.701Z,79.40
2023-01-09T23:46:12.455Z,79.20
2023-01-09T23:49:54.362Z,79.30
2023-01-09T23:53:36.070Z,79.60
2023-01-09T23:57:17.787Z,80.00
